Time;durP1;ratioP1;P1;durP2;ratioP2;P2;SDS_P1;SDS_P2;PMS_P1;PMS_P2;Temp;Humidity;BMP_temperature;BMP_pressure;BME280_temperature;BME280_humidity;BME280_pressure;Samples;Min_cycle;Max_cycle;Signal;HPM_P1;HPM_P2
2024/02/24 00:00:06;;;;;;;0.77;0.20;;;5.50;99.90;;;;;;4919817;28;20109;-78
2024/02/24 00:02:39;;;;;;;0.90;0.30;;;5.50;99.90;;;;;;4918280;29;20086;-78
2024/02/24 00:05:07;;;;;;;1.00;0.22;;;5.40;99.90;;;;;;4924555;29;20411;-78
2024/02/24 00:07:34;;;;;;;0.68;0.30;;;5.40;99.90;;;;;;4940517;29;20122;-78
2024/02/24 00:10:01;;;;;;;0.90;0.20;;;5.30;99.90;;;;;;4909082;29;20078;-78
2024/02/24 00:12:28;;;;;;;1.33;0.25;;;5.30;99.90;;;;;;4924576;29;20043;-78
2024/02/24 00:14:55;;;;;;;0.88;0.30;;;5.30;99.90;;;;;;4900843;29;20055;-78
2024/02/24 00:17:22;;;;;;;0.52;0.20;;;5.20;99.90;;;;;;4919562;29;20102;-78
2024/02/24 00:19:49;;;;;;;1.35;0.38;;;5.20;99.90;;;;;;4924701;29;20039;-78
2024/02/24 00:22:16;;;;;;;0.70;0.30;;;5.10;99.90;;;;;;4927787;28;20435;-78
2024/02/24 00:24:43;;;;;;;0.75;0.30;;;5.10;99.90;;;;;;4932538;28;20070;-78
2024/02/24 00:27:11;;;;;;;0.75;0.25;;;5.00;99.90;;;;;;4918865;29;20052;-78
2024/02/24 00:29:37;;;;;;;0.80;0.20;;;5.00;99.90;;;;;;4942645;29;20051;-77
2024/02/24 00:32:05;;;;;;;0.60;0.20;;;5.00;99.90;;;;;;4934554;28;20054;-78
2024/02/24 00:34:32;;;;;;;0.80;0.30;;;4.90;99.90;;;;;;4949347;28;20046;-77
2024/02/24 00:36:59;;;;;;;1.00;0.30;;;4.90;99.90;;;;;;4928892;28;20054;-78
2024/02/24 00:39:27;;;;;;;0.30;0.20;;;4.90;99.90;;;;;;4923973;29;20051;-78
2024/02/24 00:41:53;;;;;;;0.50;0.30;;;4.80;99.90;;;;;;4926493;28;20047;-78
2024/02/24 00:44:20;;;;;;;1.20;0.20;;;4.80;99.90;;;;;;4939968;29;20435;-78
2024/02/24 00:46:47;;;;;;;1.30;0.28;;;4.80;99.90;;;;;;4938240;28;20125;-77
2024/02/24 00:49:14;;;;;;;0.60;0.20;;;4.80;99.90;;;;;;4942884;28;20054;-78
2024/02/24 00:51:41;;;;;;;0.70;0.20;;;4.80;99.90;;;;;;4914653;28;20043;-78
2024/02/24 00:54:08;;;;;;;0.35;0.17;;;4.70;99.90;;;;;;4955413;29;20407;-78
2024/02/24 00:56:36;;;;;;;1.55;0.38;;;4.70;99.90;;;;;;4966672;28;20039;-78
2024/02/24 00:59:03;;;;;;;0.40;0.20;;;4.70;99.90;;;;;;4925874;29;20039;-78
2024/02/24 01:01:30;;;;;;;0.80;0.30;;;4.70;99.90;;;;;;4933240;28;20138;-77
2024/02/24 01:03:57;;;;;;;0.70;0.28;;;4.70;99.90;;;;;;4934097;28;20046;-77
2024/02/24 01:06:24;;;;;;;1.17;0.30;;;4.70;99.90;;;;;;4926422;28;20074;-77
2024/02/24 01:08:51;;;;;;;0.65;0.20;;;4.60;99.90;;;;;;4926831;28;20098;-78
2024/02/24 01:11:18;;;;;;;0.60;0.20;;;4.60;99.90;;;;;;4953678;28;20414;-78
2024/02/24 01:13:45;;;;;;;1.08;0.20;;;4.60;99.90;;;;;;4946471;29;20043;-78
2024/02/24 01:16:12;;;;;;;0.47;0.20;;;4.50;99.90;;;;;;4926176;28;20054;-77
2024/02/24 01:18:39;;;;;;;0.70;0.35;;;4.50;99.90;;;;;;4942301;28;20514;-78
2024/02/24 01:21:06;;;;;;;1.27;0.30;;;4.50;99.90;;;;;;4898071;28;20098;-78
2024/02/24 01:23:33;;;;;;;0.63;0.20;;;4.50;99.90;;;;;;4925252;29;20053;-82
2024/02/24 01:26:01;;;;;;;0.20;0.20;;;4.50;99.90;;;;;;4963456;28;20049;-82
2024/02/24 01:28:28;;;;;;;1.33;0.20;;;4.50;99.90;;;;;;4926510;28;20057;-82
2024/02/24 01:30:54;;;;;;;0.60;0.28;;;4.50;99.90;;;;;;4910993;28;20043;-82
2024/02/24 01:33:21;;;;;;;1.02;0.20;;;4.50;99.90;;;;;;4936161;28;20047;-82
2024/02/24 01:35:49;;;;;;;1.00;0.28;;;4.50;99.90;;;;;;4941425;28;20054;-83
2024/02/24 01:38:16;;;;;;;0.50;0.38;;;4.40;99.90;;;;;;4940223;28;20560;-82
2024/02/24 01:40:43;;;;;;;1.17;0.30;;;4.40;99.90;;;;;;4936662;28;20039;-83
2024/02/24 01:43:29;;;;;;;0.52;0.20;;;4.40;99.90;;;;;;4932329;29;20055;-83
2024/02/24 01:45:56;;;;;;;0.60;0.20;;;4.40;99.90;;;;;;4942777;28;20042;-83
2024/02/24 01:48:24;;;;;;;1.00;0.25;;;4.30;99.90;;;;;;4964498;28;20118;-83
2024/02/24 01:50:53;;;;;;;1.50;0.35;;;4.30;99.90;;;;;;4939190;28;20566;-79
2024/02/24 01:53:21;;;;;;;0.90;0.40;;;4.40;99.90;;;;;;4940135;29;20047;-79
2024/02/24 01:55:50;;;;;;;0.45;0.20;;;4.40;99.90;;;;;;4967211;28;20082;-78
2024/02/24 01:58:18;;;;;;;0.32;0.13;;;4.40;99.90;;;;;;4967857;28;20043;-78
2024/02/24 02:00:46;;;;;;;0.50;0.20;;;4.40;99.90;;;;;;4943961;28;20042;-78
2024/02/24 02:03:13;;;;;;;1.13;0.30;;;4.40;99.90;;;;;;4967076;28;20487;-78
2024/02/24 02:05:41;;;;;;;0.70;0.20;;;4.30;99.90;;;;;;4942954;28;20066;-78
2024/02/24 02:08:08;;;;;;;0.43;0.20;;;4.30;99.90;;;;;;4942363;29;20138;-78
2024/02/24 02:10:52;;;;;;;0.38;0.22;;;4.40;99.90;;;;;;4952255;28;20505;-78
2024/02/24 02:13:20;;;;;;;1.10;0.30;;;4.40;99.90;;;;;;4964388;28;20043;-78
2024/02/24 02:15:56;;;;;;;0.47;0.20;;;4.30;99.90;;;;;;4945298;28;20557;-78
2024/02/24 02:18:25;;;;;;;0.45;0.20;;;4.30;99.90;;;;;;4961255;28;20047;-78
2024/02/24 02:20:52;;;;;;;0.20;0.15;;;4.40;99.90;;;;;;4948448;28;20490;-78
2024/02/24 02:23:20;;;;;;;0.88;0.45;;;4.40;99.90;;;;;;4949895;29;20491;-78
2024/02/24 02:25:47;;;;;;;0.45;0.20;;;4.40;99.90;;;;;;4937917;29;20048;-82
2024/02/24 02:28:14;;;;;;;1.02;0.20;;;4.50;99.90;;;;;;4923989;28;20447;-82
2024/02/24 02:30:41;;;;;;;0.98;0.30;;;4.50;99.90;;;;;;4974425;28;20069;-82
2024/02/24 02:33:08;;;;;;;0.75;0.30;;;4.50;99.90;;;;;;4943092;29;20066;-83
2024/02/24 02:35:36;;;;;;;0.55;0.30;;;4.60;99.90;;;;;;4922999;29;20051;-82
2024/02/24 02:38:07;;;;;;;0.40;0.20;;;4.60;99.90;;;;;;4941375;28;20129;-82
2024/02/24 02:40:35;;;;;;;0.60;0.30;;;4.60;99.90;;;;;;4976876;28;20047;-82
2024/02/24 02:43:02;;;;;;;0.60;0.20;;;4.60;99.90;;;;;;4929610;29;20298;-82
2024/02/24 02:45:29;;;;;;;0.47;0.20;;;4.70;99.90;;;;;;4924277;29;20492;-82
2024/02/24 02:47:56;;;;;;;0.82;0.22;;;4.70;99.90;;;;;;4923710;29;20507;-83
2024/02/24 02:50:24;;;;;;;0.32;0.20;;;4.70;99.90;;;;;;4936496;28;20551;-82
2024/02/24 02:52:51;;;;;;;1.30;0.20;;;4.70;99.90;;;;;;4948511;28;20411;-82
2024/02/24 02:55:18;;;;;;;0.22;0.20;;;4.70;99.90;;;;;;4956250;28;20431;-83
2024/02/24 02:57:45;;;;;;;0.75;0.28;;;4.70;99.90;;;;;;4925342;28;20043;-82
2024/02/24 03:00:12;;;;;;;1.63;0.20;;;4.70;99.90;;;;;;4934645;28;20106;-82
2024/02/24 03:02:39;;;;;;;0.55;0.30;;;4.70;99.90;;;;;;4943385;28;20050;-82
2024/02/24 03:05:07;;;;;;;0.65;0.35;;;4.70;99.90;;;;;;4938471;28;20063;-83
2024/02/24 03:07:34;;;;;;;0.82;0.30;;;4.70;99.90;;;;;;4921929;29;20047;-82
2024/02/24 03:10:04;;;;;;;0.38;0.20;;;4.70;99.90;;;;;;4925093;28;20046;-82
2024/02/24 03:12:31;;;;;;;0.40;0.20;;;4.70;99.90;;;;;;4964518;28;20038;-82
2024/02/24 03:14:59;;;;;;;3.72;0.47;;;4.70;99.90;;;;;;4940847;28;20057;-82
2024/02/24 03:17:26;;;;;;;0.55;0.20;;;4.70;99.90;;;;;;4939780;28;20053;-82
2024/02/24 03:19:53;;;;;;;0.50;0.22;;;4.70;99.90;;;;;;4955793;28;20043;-83
2024/02/24 03:22:20;;;;;;;0.55;0.20;;;4.80;99.90;;;;;;4947447;28;20057;-83
2024/02/24 03:24:47;;;;;;;0.63;0.17;;;4.70;99.90;;;;;;4940632;28;20043;-82
2024/02/24 03:27:14;;;;;;;0.52;0.20;;;4.70;99.90;;;;;;4944283;28;20407;-82
2024/02/24 03:29:41;;;;;;;0.68;0.20;;;4.70;99.90;;;;;;4946643;28;20051;-82
2024/02/24 03:32:08;;;;;;;0.65;0.30;;;4.70;99.90;;;;;;4933927;29;20067;-82
2024/02/24 03:34:35;;;;;;;0.38;0.10;;;4.60;99.90;;;;;;4932965;29;20403;-82
2024/02/24 03:37:04;;;;;;;1.77;0.30;;;4.60;99.90;;;;;;4938572;29;20055;-82
2024/02/24 03:39:31;;;;;;;0.55;0.22;;;4.60;99.90;;;;;;4949684;28;20051;-82
2024/02/24 03:41:58;;;;;;;0.30;0.10;;;4.60;99.90;;;;;;4930297;28;20050;-82
2024/02/24 03:44:25;;;;;;;1.70;0.25;;;4.60;99.90;;;;;;4939670;28;20073;-82
2024/02/24 03:46:52;;;;;;;0.80;0.20;;;4.50;99.90;;;;;;4948289;28;20451;-82
2024/02/24 03:49:19;;;;;;;0.50;0.20;;;4.50;99.90;;;;;;4966597;28;20505;-82
2024/02/24 03:51:46;;;;;;;0.20;0.15;;;4.60;99.90;;;;;;4930777;28;20070;-82
2024/02/24 03:54:13;;;;;;;0.70;0.20;;;4.50;99.90;;;;;;4940860;29;20074;-82
2024/02/24 03:56:40;;;;;;;0.52;0.20;;;4.60;99.90;;;;;;4950072;28;20043;-83
2024/02/24 03:59:07;;;;;;;1.08;0.20;;;4.60;99.90;;;;;;4939313;28;20043;-82
2024/02/24 04:01:34;;;;;;;1.83;0.40;;;4.60;99.90;;;;;;4951796;28;20042;-82
2024/02/24 04:04:01;;;;;;;0.32;0.17;;;4.60;99.90;;;;;;4953379;28;20109;-82
2024/02/24 04:06:28;;;;;;;0.57;0.20;;;4.60;99.90;;;;;;4943628;28;20047;-82
2024/02/24 04:08:55;;;;;;;1.92;0.28;;;4.60;99.90;;;;;;4951130;28;20418;-82
2024/02/24 04:11:22;;;;;;;1.10;0.30;;;4.50;99.90;;;;;;4946274;29;20051;-82
2024/02/24 04:13:50;;;;;;;0.20;0.10;;;4.50;99.90;;;;;;4950315;28;20043;-82
2024/02/24 04:16:17;;;;;;;0.50;0.20;;;4.50;99.90;;;;;;4939963;28;20047;-82
2024/02/24 04:18:44;;;;;;;1.90;0.30;;;4.50;99.90;;;;;;4949373;28;20483;-82
2024/02/24 04:21:11;;;;;;;1.13;0.20;;;4.60;99.90;;;;;;4952294;28;20054;-82
2024/02/24 04:23:38;;;;;;;0.47;0.40;;;4.50;99.90;;;;;;4949619;29;20047;-82
2024/02/24 04:26:05;;;;;;;0.40;0.20;;;4.50;99.90;;;;;;4942691;28;20049;-82
2024/02/24 04:28:32;;;;;;;0.95;0.20;;;4.40;99.90;;;;;;4985994;28;20055;-82
2024/02/24 04:30:59;;;;;;;1.02;0.20;;;4.40;99.90;;;;;;4948653;29;20094;-82
2024/02/24 04:33:26;;;;;;;0.47;0.20;;;4.40;99.90;;;;;;4954928;28;20407;-82
2024/02/24 04:35:53;;;;;;;0.47;0.20;;;4.40;99.90;;;;;;4943340;28;20400;-82
2024/02/24 04:38:22;;;;;;;0.38;0.10;;;4.40;99.90;;;;;;4927425;28;20566;-82
2024/02/24 04:40:49;;;;;;;0.98;0.20;;;4.40;99.90;;;;;;4930672;28;20046;-82
2024/02/24 04:43:16;;;;;;;0.75;0.20;;;4.40;99.90;;;;;;4933058;28;20051;-82
2024/02/24 04:45:43;;;;;;;2.00;0.20;;;4.40;99.90;;;;;;4938735;28;20047;-82
2024/02/24 04:48:10;;;;;;;0.35;0.20;;;4.40;99.90;;;;;;4909281;29;20055;-82
2024/02/24 04:50:38;;;;;;;1.65;0.30;;;4.40;99.90;;;;;;4953291;29;20137;-82
2024/02/24 04:53:05;;;;;;;1.10;0.30;;;4.50;99.90;;;;;;4934057;28;20050;-82
2024/02/24 04:55:32;;;;;;;1.27;0.20;;;4.60;99.90;;;;;;4927109;28;20051;-82
2024/02/24 04:57:59;;;;;;;0.50;0.30;;;4.60;99.90;;;;;;4938680;28;20054;-82
2024/02/24 05:00:26;;;;;;;1.23;0.43;;;4.60;99.90;;;;;;4949824;28;20039;-82
2024/02/24 05:02:53;;;;;;;1.52;0.50;;;4.60;99.90;;;;;;4926881;28;20066;-82
2024/02/24 05:05:20;;;;;;;1.50;0.25;;;4.70;99.90;;;;;;4934367;29;20391;-82
2024/02/24 05:07:48;;;;;;;0.70;0.30;;;4.70;99.90;;;;;;4937475;29;20043;-82
2024/02/24 05:10:15;;;;;;;1.10;0.35;;;4.70;99.90;;;;;;4939556;29;20051;-82
2024/02/24 05:12:47;;;;;;;1.98;0.40;;;4.80;99.90;;;;;;4955170;28;20050;-82
2024/02/24 05:15:18;;;;;;;1.08;0.60;;;4.80;99.90;;;;;;4969127;28;20055;-82
2024/02/24 05:17:45;;;;;;;0.68;0.30;;;4.90;99.90;;;;;;4942672;28;20050;-82
2024/02/24 05:20:13;;;;;;;0.75;0.30;;;4.90;99.90;;;;;;4961758;28;20121;-82
2024/02/24 05:22:40;;;;;;;0.93;0.30;;;4.90;99.90;;;;;;4962086;28;20469;-82
2024/02/24 05:25:11;;;;;;;0.85;0.40;;;5.00;99.90;;;;;;4943162;29;20044;-82
2024/02/24 05:27:38;;;;;;;1.83;0.28;;;5.00;99.90;;;;;;4938827;29;20166;-82
2024/02/24 05:30:06;;;;;;;0.93;0.30;;;5.00;99.90;;;;;;4910745;28;20076;-82
2024/02/24 05:32:33;;;;;;;0.63;0.30;;;5.10;99.90;;;;;;4948424;28;20134;-82
2024/02/24 05:35:00;;;;;;;0.60;0.22;;;5.10;99.90;;;;;;4928781;28;20087;-82
2024/02/24 05:37:27;;;;;;;0.38;0.25;;;5.10;99.90;;;;;;4942056;28;20069;-82
2024/02/24 05:39:54;;;;;;;0.63;0.30;;;5.20;99.90;;;;;;4923222;28;20043;-82
2024/02/24 05:42:21;;;;;;;0.88;0.30;;;5.20;99.90;;;;;;4955588;28;20442;-82
2024/02/24 05:44:48;;;;;;;1.10;0.20;;;5.20;99.90;;;;;;4933169;28;20055;-82
2024/02/24 05:47:16;;;;;;;0.82;0.30;;;5.30;99.90;;;;;;4958086;28;20046;-82
2024/02/24 05:49:43;;;;;;;0.60;0.25;;;5.30;99.90;;;;;;4956705;28;20089;-82
2024/02/24 05:52:10;;;;;;;0.30;0.20;;;5.30;99.90;;;;;;4957326;28;20142;-82
2024/02/24 05:54:41;;;;;;;0.90;0.30;;;5.30;99.90;;;;;;4956794;28;20039;-82
2024/02/24 05:57:08;;;;;;;0.60;0.30;;;5.40;99.90;;;;;;4945594;28;20042;-82
2024/02/24 05:59:36;;;;;;;0.90;0.40;;;5.40;99.90;;;;;;4950954;29;20047;-82
2024/02/24 06:02:03;;;;;;;1.00;0.40;;;5.40;99.90;;;;;;4969333;28;20035;-82
2024/02/24 06:04:30;;;;;;;1.23;0.40;;;5.40;99.90;;;;;;4947446;29;20071;-82
2024/02/24 06:06:57;;;;;;;0.80;0.30;;;5.40;99.90;;;;;;4952406;28;20042;-82
2024/02/24 06:09:25;;;;;;;0.80;0.30;;;5.40;99.90;;;;;;4948843;29;20057;-82
2024/02/24 06:11:52;;;;;;;0.55;0.20;;;5.50;99.90;;;;;;4924980;28;20057;-82
2024/02/24 06:14:20;;;;;;;1.33;0.30;;;5.50;99.90;;;;;;4965162;28;20534;-82
2024/02/24 06:16:47;;;;;;;0.90;0.30;;;5.50;99.90;;;;;;4964586;28;20054;-82
2024/02/24 06:19:14;;;;;;;0.75;0.30;;;5.50;99.90;;;;;;4958738;28;20042;-82
2024/02/24 06:21:41;;;;;;;0.57;0.28;;;5.50;99.90;;;;;;4941332;28;20109;-82
2024/02/24 06:24:08;;;;;;;0.35;0.20;;;5.60;99.90;;;;;;4947186;29;20145;-82
2024/02/24 06:26:35;;;;;;;0.50;0.30;;;5.60;99.90;;;;;;4953172;28;20054;-82
2024/02/24 06:29:03;;;;;;;0.85;0.30;;;5.60;99.90;;;;;;4925457;29;20062;-82
2024/02/24 06:31:30;;;;;;;0.65;0.30;;;5.70;99.90;;;;;;4971484;28;20063;-82
2024/02/24 06:33:57;;;;;;;1.00;0.20;;;5.70;99.90;;;;;;4941245;28;20082;-82
2024/02/24 06:36:24;;;;;;;0.95;0.40;;;5.70;99.90;;;;;;4927128;28;20141;-77
2024/02/24 06:38:51;;;;;;;1.05;0.40;;;5.70;99.90;;;;;;4973507;28;20050;-77
2024/02/24 06:41:18;;;;;;;1.65;0.40;;;5.70;99.90;;;;;;4920429;28;20070;-77
2024/02/24 06:43:46;;;;;;;0.85;0.35;;;5.70;99.90;;;;;;4911782;28;20051;-77
2024/02/24 06:46:14;;;;;;;1.13;0.38;;;5.70;99.90;;;;;;4944322;28;20423;-77
2024/02/24 06:48:41;;;;;;;0.75;0.30;;;5.70;99.90;;;;;;4927620;28;20550;-78
2024/02/24 06:51:09;;;;;;;0.90;0.40;;;5.70;99.90;;;;;;4931112;29;20470;-78
2024/02/24 06:53:36;;;;;;;1.00;0.30;;;5.80;99.90;;;;;;4939157;28;20043;-78
2024/02/24 06:56:09;;;;;;;0.70;0.30;;;5.80;99.90;;;;;;4953853;28;20046;-78
2024/02/24 06:58:37;;;;;;;0.50;0.30;;;5.70;99.90;;;;;;4946109;28;20050;-78
2024/02/24 07:01:04;;;;;;;0.57;0.20;;;5.80;99.90;;;;;;4927156;29;20492;-77
2024/02/24 07:03:32;;;;;;;0.28;0.20;;;5.70;99.90;;;;;;4942256;28;20038;-78
2024/02/24 07:06:01;;;;;;;0.95;0.35;;;5.70;99.90;;;;;;4931501;28;20510;-77
2024/02/24 07:08:28;;;;;;;0.90;0.30;;;5.80;99.90;;;;;;4964561;28;20423;-78
2024/02/24 07:10:56;;;;;;;0.88;0.30;;;5.80;99.90;;;;;;4931146;28;20098;-77
2024/02/24 07:13:23;;;;;;;1.42;0.32;;;5.70;99.90;;;;;;4946292;29;20500;-77
2024/02/24 07:15:50;;;;;;;1.20;0.30;;;5.80;99.90;;;;;;4910686;28;20106;-78
2024/02/24 07:18:17;;;;;;;1.20;0.40;;;5.80;99.90;;;;;;4945653;28;20039;-77
2024/02/24 07:20:44;;;;;;;0.77;0.40;;;5.80;99.90;;;;;;4949831;28;20510;-77
2024/02/24 07:23:11;;;;;;;1.85;0.30;;;5.80;99.90;;;;;;4950863;28;20057;-77
2024/02/24 07:25:38;;;;;;;0.75;0.30;;;5.90;99.90;;;;;;4977879;28;20038;-77
2024/02/24 07:28:06;;;;;;;0.98;0.40;;;5.90;99.90;;;;;;4926422;28;20043;-82
2024/02/24 07:30:33;;;;;;;1.10;0.40;;;5.90;99.90;;;;;;4960259;28;20050;-82
2024/02/24 07:33:00;;;;;;;1.13;0.32;;;6.00;99.90;;;;;;4965579;28;20065;-82
2024/02/24 07:35:28;;;;;;;0.50;0.30;;;6.00;99.90;;;;;;4940286;28;20047;-82
2024/02/24 07:37:55;;;;;;;0.70;0.40;;;6.00;99.90;;;;;;4951454;28;20463;-82
2024/02/24 07:40:22;;;;;;;1.05;0.40;;;6.00;99.90;;;;;;4970652;28;20089;-82
2024/02/24 07:42:51;;;;;;;1.02;0.20;;;6.10;99.90;;;;;;4929538;28;20043;-82
2024/02/24 07:45:17;;;;;;;1.23;0.40;;;6.10;99.90;;;;;;4925197;28;20081;-82
2024/02/24 07:47:44;;;;;;;0.88;0.32;;;6.20;99.90;;;;;;4925353;29;20114;-82
2024/02/24 07:50:11;;;;;;;1.10;0.40;;;6.20;99.90;;;;;;4928336;28;20061;-82
2024/02/24 07:52:39;;;;;;;1.15;0.32;;;6.20;99.90;;;;;;4953385;28;20042;-82
2024/02/24 07:55:06;;;;;;;1.35;0.40;;;6.30;99.90;;;;;;4924188;29;20069;-82
2024/02/24 07:57:33;;;;;;;1.38;0.60;;;6.30;99.90;;;;;;4945920;28;20518;-82
2024/02/24 08:00:01;;;;;;;0.73;0.38;;;6.30;99.90;;;;;;4943262;28;20491;-82
2024/02/24 08:02:31;;;;;;;0.88;0.40;;;6.30;99.90;;;;;;4975397;28;20050;-82
2024/02/24 08:04:58;;;;;;;1.63;0.47;;;6.40;99.90;;;;;;4959475;28;20142;-82
2024/02/24 08:07:26;;;;;;;1.20;0.77;;;6.40;99.90;;;;;;4925909;28;20058;-82
2024/02/24 08:09:52;;;;;;;1.00;0.50;;;6.40;99.90;;;;;;4934992;29;20495;-82
2024/02/24 08:12:19;;;;;;;1.33;0.50;;;6.40;99.90;;;;;;4938374;28;20053;-82
2024/02/24 08:14:47;;;;;;;1.30;0.50;;;6.50;99.90;;;;;;4935611;29;20436;-82
2024/02/24 08:17:14;;;;;;;1.40;0.60;;;6.50;99.90;;;;;;4934268;28;20823;-82
2024/02/24 08:19:44;;;;;;;1.20;0.40;;;6.60;99.90;;;;;;4952467;28;20566;-82
2024/02/24 08:22:11;;;;;;;1.73;0.70;;;6.60;99.90;;;;;;4960241;28;20053;-82
2024/02/24 08:24:38;;;;;;;2.97;0.73;;;6.70;99.90;;;;;;4927718;28;20039;-82
2024/02/24 08:27:05;;;;;;;1.50;0.50;;;6.70;99.90;;;;;;4959932;28;20549;-82
2024/02/24 08:29:32;;;;;;;1.50;0.60;;;6.80;99.90;;;;;;4962615;28;20054;-82
2024/02/24 08:31:59;;;;;;;1.10;0.50;;;6.90;99.90;;;;;;4937351;28;20581;-82
2024/02/24 08:34:26;;;;;;;1.38;0.55;;;6.90;99.90;;;;;;4946080;28;20503;-82
2024/02/24 08:36:54;;;;;;;1.58;0.60;;;6.90;99.90;;;;;;4952263;28;20117;-82
2024/02/24 08:39:21;;;;;;;0.82;0.40;;;6.90;99.90;;;;;;4953277;28;20039;-82
2024/02/24 08:41:47;;;;;;;3.10;0.63;;;6.90;99.90;;;;;;4942991;28;20046;-79
2024/02/24 08:44:14;;;;;;;0.98;0.43;;;6.90;99.90;;;;;;4960861;28;20049;-79
2024/02/24 08:46:42;;;;;;;1.15;0.50;;;6.90;99.90;;;;;;4927917;28;20046;-79
2024/02/24 08:49:08;;;;;;;1.55;0.50;;;6.90;99.90;;;;;;4945566;28;20553;-78
2024/02/24 08:51:35;;;;;;;1.20;0.55;;;6.90;99.90;;;;;;4967550;28;20129;-79
2024/02/24 08:54:02;;;;;;;1.55;0.60;;;6.90;99.90;;;;;;4952625;28;20031;-79
2024/02/24 08:56:29;;;;;;;1.77;0.80;;;7.00;99.90;;;;;;4947143;29;20102;-79
2024/02/24 08:58:56;;;;;;;2.90;0.98;;;7.00;99.90;;;;;;4943218;28;20141;-78
2024/02/24 09:01:23;;;;;;;4.38;1.35;;;7.00;99.90;;;;;;4932822;28;20043;-79
2024/02/24 09:03:50;;;;;;;2.13;0.70;;;6.90;99.90;;;;;;4958641;28;20513;-78
2024/02/24 09:06:18;;;;;;;1.88;0.82;;;6.90;99.90;;;;;;4965115;28;20042;-78
2024/02/24 09:08:45;;;;;;;1.63;0.70;;;6.90;99.90;;;;;;4949900;28;20097;-91
2024/02/24 09:11:12;;;;;;;2.45;0.63;;;7.00;99.90;;;;;;4962467;28;20046;-78
2024/02/24 09:13:39;;;;;;;2.10;0.98;;;7.10;99.90;;;;;;4945314;28;20104;-79
2024/02/24 09:16:06;;;;;;;2.97;1.00;;;7.20;99.90;;;;;;4923686;29;20035;-79
2024/02/24 09:18:33;;;;;;;4.22;1.30;;;7.20;99.90;;;;;;4926855;28;20055;-79
2024/02/24 09:21:00;;;;;;;2.53;0.90;;;7.10;99.90;;;;;;4942504;28;20058;-77
2024/02/24 09:23:28;;;;;;;2.85;1.10;;;7.10;99.90;;;;;;4946260;28;20050;-78
2024/02/24 09:25:55;;;;;;;4.15;0.90;;;7.10;99.90;;;;;;4962652;28;20118;-78
2024/02/24 09:28:21;;;;;;;3.25;1.25;;;7.20;99.90;;;;;;4955175;28;20082;-78
2024/02/24 09:30:48;;;;;;;3.38;1.35;;;7.20;99.90;;;;;;4981614;28;20043;-78
2024/02/24 09:33:15;;;;;;;2.13;1.00;;;7.20;99.90;;;;;;4924533;28;20055;-78
2024/02/24 09:35:43;;;;;;;2.90;1.38;;;7.20;99.90;;;;;;4935907;28;20054;-79
2024/02/24 09:38:10;;;;;;;2.05;1.10;;;7.10;99.90;;;;;;4953957;29;20086;-79
2024/02/24 09:40:37;;;;;;;2.20;1.15;;;7.20;99.90;;;;;;4928702;28;20050;-78
2024/02/24 09:43:05;;;;;;;2.90;1.20;;;7.10;99.90;;;;;;4948396;28;20069;-79
2024/02/24 09:45:41;;;;;;;2.50;1.17;;;7.10;99.90;;;;;;4942096;28;20094;-78
2024/02/24 09:48:10;;;;;;;3.00;1.85;;;7.00;99.90;;;;;;4929515;28;20057;-78
2024/02/24 09:50:38;;;;;;;2.25;1.10;;;6.80;99.90;;;;;;4925890;28;20121;-79
2024/02/24 09:53:06;;;;;;;1.90;0.88;;;6.60;99.90;;;;;;4958691;28;20121;-78
2024/02/24 09:55:43;;;;;;;1.58;0.80;;;6.30;99.90;;;;;;4972568;28;20075;-78
2024/02/24 09:58:11;;;;;;;2.22;0.80;;;6.10;99.90;;;;;;4945657;28;20188;-79
2024/02/24 10:00:38;;;;;;;2.90;1.20;;;6.00;99.90;;;;;;4941574;28;20046;-78
2024/02/24 10:03:07;;;;;;;3.53;1.20;;;6.00;99.90;;;;;;4942213;29;20094;-78
2024/02/24 10:05:39;;;;;;;3.65;1.20;;;5.90;99.90;;;;;;4911582;28;20411;-79
2024/02/24 10:08:09;;;;;;;3.15;1.25;;;5.90;99.90;;;;;;4931857;29;20439;-79
2024/02/24 10:10:36;;;;;;;2.65;1.15;;;5.90;99.90;;;;;;4945410;28;20078;-78
2024/02/24 10:13:03;;;;;;;4.00;1.83;;;5.90;99.90;;;;;;4944876;28;20046;-78
2024/02/24 10:15:32;;;;;;;4.63;1.80;;;5.90;99.90;;;;;;4964253;28;20047;-78
2024/02/24 10:17:59;;;;;;;4.20;1.70;;;5.80;99.90;;;;;;4924651;28;20038;-78
2024/02/24 10:20:29;;;;;;;3.47;1.60;;;5.80;99.90;;;;;;4964430;28;20047;-81
2024/02/24 10:22:57;;;;;;;3.65;1.90;;;5.80;99.90;;;;;;4975963;28;20049;-78
2024/02/24 10:25:24;;;;;;;3.67;1.70;;;5.80;99.90;;;;;;4960423;28;20554;-82
2024/02/24 10:27:52;;;;;;;3.38;1.77;;;5.70;99.90;;;;;;4921666;28;20049;-77
2024/02/24 10:30:19;;;;;;;3.70;1.60;;;5.80;99.90;;;;;;4941170;28;20046;-78
2024/02/24 10:32:52;;;;;;;;;;;5.80;99.90;;;;;;4935590;28;20118;-78
2024/02/24 10:35:19;;;;;;;3.88;2.25;;;5.80;99.90;;;;;;4942913;28;19926;-81
2024/02/24 10:37:48;;;;;;;5.07;2.10;;;5.80;99.90;;;;;;4931891;28;20543;-81
2024/02/24 10:40:37;;;;;;;6.13;2.50;;;5.90;99.90;;;;;;4942929;28;20489;-81
2024/02/24 10:43:06;;;;;;;4.00;2.28;;;5.90;99.90;;;;;;4948779;28;20047;-81
2024/02/24 10:45:33;;;;;;;4.70;2.33;;;5.80;99.90;;;;;;4960588;28;20051;-81
2024/02/24 10:48:00;;;;;;;3.63;2.05;;;5.80;99.90;;;;;;4956194;28;20038;-81
2024/02/24 10:50:28;;;;;;;5.13;2.30;;;5.90;99.90;;;;;;4945353;28;20487;-79
2024/02/24 10:52:58;;;;;;;4.70;2.55;;;6.00;99.90;;;;;;4945421;28;20054;-79
2024/02/24 10:55:28;;;;;;;6.40;3.20;;;6.10;99.90;;;;;;4952931;29;20057;-79
2024/02/24 10:57:56;;;;;;;6.80;3.22;;;6.20;99.90;;;;;;4947284;29;20055;-79
2024/02/24 11:00:29;;;;;;;4.97;2.60;;;6.40;99.90;;;;;;4976704;28;20047;-87
2024/02/24 11:02:58;;;;;;;6.28;2.78;;;6.50;99.90;;;;;;4968524;28;20047;-87
2024/02/24 11:05:27;;;;;;;4.50;2.55;;;6.60;99.90;;;;;;4959740;28;20058;-88
2024/02/24 11:07:54;;;;;;;4.53;2.58;;;6.60;99.90;;;;;;4945512;28;20047;-88
2024/02/24 11:14:20;;;;;;;4.35;2.67;;;6.80;99.90;;;;;;4972576;28;20479;-82
2024/02/24 11:16:51;;;;;;;5.18;2.45;;;6.70;99.90;;;;;;4945464;29;20043;-83
2024/02/24 11:19:38;;;;;;;;;;;6.60;99.90;;;;;;4971193;28;20065;-88
2024/02/24 11:22:12;;;;;;;4.03;2.20;;;6.60;99.90;;;;;;4948536;28;20362;-86
2024/02/24 11:24:58;;;;;;;5.50;2.85;;;6.60;99.90;;;;;;4963334;28;20050;-85
2024/02/24 11:27:30;;;;;;;4.72;2.35;;;6.80;99.90;;;;;;4956009;28;20426;-86
2024/02/24 11:29:58;;;;;;;5.03;2.40;;;7.00;99.90;;;;;;4944294;28;20047;-86
2024/02/24 11:32:25;;;;;;;4.53;2.40;;;7.10;99.90;;;;;;4915644;28;20135;-87
2024/02/24 11:34:55;;;;;;;4.10;2.22;;;7.10;99.90;;;;;;4925851;28;20043;-87
2024/02/24 11:37:22;;;;;;;4.72;2.30;;;7.20;99.90;;;;;;4968179;28;20047;-88
2024/02/24 11:39:50;;;;;;;3.92;2.45;;;7.20;99.90;;;;;;4941317;28;20043;-87
2024/02/24 11:42:17;;;;;;;4.00;2.47;;;7.20;99.90;;;;;;4940721;28;20046;-87
2024/02/24 11:44:45;;;;;;;3.75;2.17;;;7.20;99.90;;;;;;4946812;28;20084;-87
2024/02/24 11:47:17;;;;;;;3.10;2.05;;;7.20;99.90;;;;;;4955447;28;20047;-89
2024/02/24 11:49:47;;;;;;;3.03;1.63;;;7.20;99.90;;;;;;4964201;28;20125;-89
2024/02/24 11:52:15;;;;;;;3.15;1.45;;;7.30;99.90;;;;;;4949061;28;20054;-85
2024/02/24 11:54:43;;;;;;;2.95;1.58;;;7.30;99.90;;;;;;4953892;28;20101;-82
2024/02/24 11:57:12;;;;;;;5.32;2.05;;;7.40;99.90;;;;;;4944272;28;20051;-82
2024/02/24 11:59:40;;;;;;;4.65;1.65;;;7.50;99.90;;;;;;4952176;28;20057;-84
2024/02/24 12:02:07;;;;;;;2.85;1.15;;;7.50;99.90;;;;;;4976966;28;20380;-83
2024/02/24 12:04:34;;;;;;;6.15;2.20;;;7.40;99.90;;;;;;4943938;28;20395;-82
2024/02/24 12:07:04;;;;;;;3.80;1.70;;;7.40;99.90;;;;;;4959492;28;20252;-89
2024/02/24 12:09:31;;;;;;;3.58;1.52;;;7.40;99.90;;;;;;4921451;29;20044;-87
2024/02/24 12:11:59;;;;;;;3.88;1.23;;;7.40;99.90;;;;;;4925629;29;20400;-86
2024/02/24 12:14:28;;;;;;;2.65;0.95;;;7.50;99.90;;;;;;4950068;29;20407;-89
2024/02/24 12:16:57;;;;;;;3.30;1.08;;;7.50;99.90;;;;;;4944334;28;20058;-87
2024/02/24 12:19:30;;;;;;;1.83;0.77;;;7.50;99.90;;;;;;4972094;28;20077;-76
2024/02/24 12:21:57;;;;;;;4.78;1.15;;;7.70;99.90;;;;;;4943766;28;20499;-79
2024/02/24 12:24:28;;;;;;;3.50;0.90;;;7.90;99.90;;;;;;4927660;28;20043;-80
2024/02/24 12:27:03;;;;;;;2.60;0.98;;;8.00;99.90;;;;;;4952906;28;20150;-80
2024/02/24 12:29:30;;;;;;;3.15;0.98;;;8.00;99.90;;;;;;4927245;29;20051;-76
2024/02/24 12:31:57;;;;;;;2.33;0.95;;;8.00;99.90;;;;;;4942630;28;20062;-77
2024/02/24 12:34:24;;;;;;;3.05;1.10;;;7.90;99.90;;;;;;4961779;28;20057;-83
2024/02/24 12:36:58;;;;;;;3.20;0.85;;;7.80;99.10;;;;;;4968803;28;20117;-76
2024/02/24 12:39:31;;;;;;;3.25;0.90;;;7.70;99.40;;;;;;4936569;29;20051;-77
2024/02/24 12:41:58;;;;;;;3.58;0.90;;;7.50;99.70;;;;;;4965828;28;20046;-76
2024/02/24 12:44:27;;;;;;;1.35;0.65;;;7.40;99.90;;;;;;4976619;28;20129;-83
2024/02/24 12:46:54;;;;;;;2.72;0.65;;;7.30;99.90;;;;;;4945336;28;20582;-84
2024/02/24 12:49:21;;;;;;;2.35;0.77;;;7.20;99.90;;;;;;4976411;28;20054;-84
2024/02/24 12:51:52;;;;;;;2.92;1.10;;;7.20;99.90;;;;;;4954736;28;20101;-84
2024/02/24 12:54:19;;;;;;;3.53;0.90;;;7.20;99.90;;;;;;4976075;28;20085;-84
2024/02/24 12:56:46;;;;;;;2.05;0.70;;;7.10;99.90;;;;;;4958802;28;20051;-84
2024/02/24 12:59:14;;;;;;;2.00;0.80;;;7.00;99.90;;;;;;4927437;28;20066;-84
2024/02/24 13:01:41;;;;;;;1.45;0.60;;;6.80;99.90;;;;;;4928382;29;20077;-84
2024/02/24 13:04:08;;;;;;;4.05;0.93;;;6.70;99.90;;;;;;4943126;28;20062;-85